Time;durP1;ratioP1;P1;durP2;ratioP2;P2;SDS_P1;SDS_P2;PMS_P1;PMS_P2;Temp;Humidity;BMP_temperature;BMP_pressure;BME280_temperature;BME280_humidity;BME280_pressure;Samples;Min_cycle;Max_cycle;Signal;HPM_P1;HPM_P2
2022/12/17 13:06:08;;;;;;;37.03;13.85;;;;;;;;;;5055883;28;20052;-78
2022/12/17 13:08:34;;;;;;;38.55;12.82;;;;;;;;;;5070853;28;20047;-77
2022/12/17 13:11:09;;;;;;;32.55;13.30;;;;;;;;;;5065110;28;20431;-77
2022/12/17 13:13:54;;;;;;;37.13;13.60;;;;;;;;;;5070520;28;20044;-77
2022/12/17 13:16:47;;;;;;;39.33;14.75;;;;;;;;;;5058423;28;20040;-78
2022/12/17 13:19:40;;;;;;;37.28;14.18;;;;;;;;;;5091881;28;20048;-77
2022/12/17 13:22:13;;;;;;;38.88;14.75;;;;;;;;;;5085751;28;20097;-77
2022/12/17 13:24:48;;;;;;;37.90;14.45;;;;;;;;;;5091354;28;20147;-77
2022/12/17 13:27:26;;;;;;;41.95;14.68;;;;;;;;;;5091176;28;20044;-77
2022/12/17 13:29:53;;;;;;;48.63;16.42;;;;;;;;;;5090878;28;20068;-77
2022/12/17 13:32:22;;;;;;;46.65;17.90;;;;;;;;;;5090946;28;20078;-75
2022/12/17 13:35:09;;;;;;;39.30;16.40;;;;;;;;;;5092005;28;20159;-76
2022/12/17 13:37:48;;;;;;;50.55;17.70;;;;;;;;;;5072733;28;20060;-76
2022/12/17 13:40:22;;;;;;;42.22;16.98;;;;;;;;;;5090894;28;20546;-76
2022/12/17 13:42:49;;;;;;;49.92;17.40;;;;;;;;;;5090659;28;20051;-76
2022/12/17 13:45:16;;;;;;;39.97;16.25;;;;;;;;;;5091574;28;20054;-76
2022/12/17 13:47:42;;;;;;;37.72;14.82;;;;;;;;;;5080513;28;20048;-76
2022/12/17 13:50:19;;;;;;;43.55;14.93;;;;;;;;;;5072038;28;20055;-76
2022/12/17 13:53:09;;;;;;;38.72;15.38;;;;;;;;;;5070355;28;20044;-77
2022/12/17 13:55:36;;;;;;;33.75;13.60;;;;;;;;;;5069086;28;20122;-78
2022/12/17 13:58:03;;;;;;;39.15;15.45;;;;;;;;;;5076860;28;20048;-76
2022/12/17 14:00:29;;;;;;;45.70;17.10;;;;;;;;;;5073106;28;20056;-77
2022/12/17 14:02:56;;;;;;;44.70;17.77;;;;;;;;;;5049573;28;20037;-77
2022/12/17 14:05:51;;;;;;;46.88;17.63;;;;;;;;;;5050340;28;20044;-77
2022/12/17 14:08:19;;;;;;;46.60;17.33;;;;;;;;;;5065141;28;20418;-76
2022/12/17 14:10:48;;;;;;;41.13;16.98;;;;;;;;;;5068899;28;20055;-77
2022/12/17 14:13:15;;;;;;;41.38;16.90;;;;;;;;;;5068538;28;20049;-76
2022/12/17 14:15:46;;;;;;;45.85;17.70;;;;;;;;;;5079878;28;20493;-77
2022/12/17 14:18:16;;;;;;;54.47;18.52;;;;;;;;;;5088592;28;20056;-77
2022/12/17 14:20:43;;;;;;;40.60;17.58;;;;;;;;;;5065651;28;20048;-76
2022/12/17 14:23:30;;;;;;;37.45;16.17;;;;;;;;;;5065134;28;20725;-75
2022/12/17 14:25:59;;;;;;;40.70;14.98;;;;;;;;;;5063661;28;20052;-77
2022/12/17 14:28:33;;;;;;;37.60;14.90;;;;;;;;;;5064938;28;20067;-76
2022/12/17 14:31:14;;;;;;;42.25;16.77;;;;;;;;;;5063711;28;20052;-76
2022/12/17 14:34:12;;;;;;;44.97;15.98;;;;;;;;;;5055989;28;20049;-76
2022/12/17 14:36:38;;;;;;;;;;;;;;;;;;5065938;28;20052;-77
2022/12/17 14:39:14;;;;;;;30.52;12.68;;;;;;;;;;5063823;28;19924;-76
2022/12/17 14:44:27;;;;;;;39.33;14.32;;;;;;;;;;5063739;28;20048;-78
2022/12/17 14:47:31;;;;;;;34.22;15.30;;;;;;;;;;5084893;28;20059;-77
2022/12/17 14:50:16;;;;;;;33.72;13.77;;;;;;;;;;5015063;28;20052;-76
2022/12/17 14:52:44;;;;;;;25.85;11.68;;;;;;;;;;5001551;28;20072;-77
2022/12/17 14:55:23;;;;;;;37.28;15.57;;;;;;;;;;5039877;28;20059;-76
2022/12/17 14:57:50;;;;;;;36.50;15.65;;;;;;;;;;5064881;28;20425;-77
2022/12/17 15:00:17;;;;;;;43.97;15.95;;;;;;;;;;5063919;28;20528;-78
2022/12/17 15:02:46;;;;;;;39.97;13.13;;;;;;;;;;5066144;28;20452;-76
2022/12/17 15:05:14;;;;;;;43.20;16.05;;;;;;;;;;5067894;28;20594;-77
2022/12/17 15:07:41;;;;;;;46.63;15.77;;;;;;;;;;5066124;28;20047;-78
2022/12/17 15:10:09;;;;;;;42.38;16.52;;;;;;;;;;5065039;28;20235;-77
2022/12/17 15:12:35;;;;;;;39.42;15.65;;;;;;;;;;5063531;28;20048;-78
2022/12/17 15:15:02;;;;;;;43.60;17.85;;;;;;;;;;5070531;28;20047;-77
2022/12/17 15:17:28;;;;;;;36.75;14.82;;;;;;;;;;5073588;28;20044;-77
2022/12/17 15:19:55;;;;;;;34.65;13.55;;;;;;;;;;5067622;28;20044;-77
2022/12/17 15:22:21;;;;;;;34.28;13.20;;;;;;;;;;5089002;28;20062;-77
2022/12/17 15:24:48;;;;;;;42.28;15.70;;;;;;;;;;5069228;28;20072;-77
2022/12/17 15:27:15;;;;;;;39.60;15.25;;;;;;;;;;5067828;28;20048;-77
2022/12/17 15:29:42;;;;;;;39.17;14.35;;;;;;;;;;5047433;28;20045;-76
2022/12/17 15:32:15;;;;;;;40.28;14.65;;;;;;;;;;5050608;28;20466;-77
2022/12/17 15:34:42;;;;;;;43.63;14.73;;;;;;;;;;5069007;28;20174;-77
2022/12/17 15:37:08;;;;;;;41.60;15.73;;;;;;;;;;5069880;28;20056;-77
2022/12/17 15:39:36;;;;;;;41.70;14.43;;;;;;;;;;5075109;28;20048;-75
2022/12/17 15:44:47;;;;;;;31.30;10.60;;;;;;;;;;5079794;28;20435;-76
2022/12/17 15:47:13;;;;;;;34.60;14.55;;;;;;;;;;5077886;28;20436;-78
2022/12/17 15:49:39;;;;;;;35.75;13.43;;;;;;;;;;5067854;28;20078;-76
2022/12/17 15:52:06;;;;;;;34.30;14.27;;;;;;;;;;5048155;28;20056;-76
2022/12/17 15:54:32;;;;;;;36.67;15.52;;;;;;;;;;5068199;28;20063;-76
2022/12/17 15:56:59;;;;;;;34.05;14.13;;;;;;;;;;5070524;28;20056;-77
2022/12/17 15:59:25;;;;;;;34.75;13.77;;;;;;;;;;5068882;28;20048;-76
2022/12/17 16:01:51;;;;;;;42.97;15.38;;;;;;;;;;5063622;28;20053;-73
2022/12/17 16:04:18;;;;;;;37.65;14.82;;;;;;;;;;5059963;28;20279;-75
2022/12/17 16:06:50;;;;;;;33.40;13.30;;;;;;;;;;5052554;28;20063;-76
2022/12/17 16:09:16;;;;;;;35.33;12.90;;;;;;;;;;5067276;28;20048;-76
2022/12/17 16:11:43;;;;;;;40.28;14.85;;;;;;;;;;5049523;28;20059;-76
2022/12/17 16:14:09;;;;;;;40.42;15.25;;;;;;;;;;5049347;28;20082;-77
2022/12/17 16:16:35;;;;;;;33.33;13.45;;;;;;;;;;5067762;28;20058;-77
2022/12/17 16:19:02;;;;;;;45.55;14.27;;;;;;;;;;5068738;28;20448;-77
2022/12/17 16:21:28;;;;;;;36.20;12.85;;;;;;;;;;5066211;28;20059;-77
2022/12/17 16:23:55;;;;;;;34.45;13.45;;;;;;;;;;5050365;28;20048;-78
2022/12/17 16:26:21;;;;;;;41.88;14.02;;;;;;;;;;5071332;28;20060;-77
2022/12/17 16:28:48;;;;;;;42.25;14.23;;;;;;;;;;5070016;28;20059;-77
2022/12/17 16:31:15;;;;;;;34.45;13.50;;;;;;;;;;5065461;28;20287;-77
2022/12/17 16:33:42;;;;;;;40.15;14.43;;;;;;;;;;5066674;28;20052;-77
2022/12/17 16:36:10;;;;;;;38.50;15.00;;;;;;;;;;5051334;28;20052;-77
2022/12/17 16:38:44;;;;;;;34.22;14.05;;;;;;;;;;5067850;28;20056;-76
2022/12/17 16:41:10;;;;;;;41.95;14.98;;;;;;;;;;5066828;28;20101;-77
2022/12/17 16:43:37;;;;;;;37.90;14.60;;;;;;;;;;5066166;28;20052;-77
2022/12/17 16:46:04;;;;;;;40.78;15.50;;;;;;;;;;5068115;28;20056;-77
2022/12/17 16:48:37;;;;;;;39.08;15.48;;;;;;;;;;5068227;28;20048;-77
2022/12/17 16:51:15;;;;;;;36.88;14.77;;;;;;;;;;5067125;28;20116;-77
2022/12/17 16:53:49;;;;;;;39.00;14.30;;;;;;;;;;5068159;28;20052;-76
2022/12/17 16:56:16;;;;;;;44.83;15.13;;;;;;;;;;5068242;28;20045;-76
2022/12/17 16:58:43;;;;;;;45.17;16.20;;;;;;;;;;5067692;28;20052;-77
2022/12/17 17:01:09;;;;;;;34.38;14.50;;;;;;;;;;5069109;28;20045;-76
2022/12/17 17:03:40;;;;;;;39.95;15.98;;;;;;;;;;5070044;28;20053;-76
2022/12/17 17:06:07;;;;;;;44.85;15.77;;;;;;;;;;5067310;28;20462;-77
2022/12/17 17:08:37;;;;;;;37.22;16.50;;;;;;;;;;5072022;28;20074;-76
2022/12/17 17:11:10;;;;;;;39.38;15.02;;;;;;;;;;5078063;28;20082;-76
2022/12/17 17:13:37;;;;;;;48.90;16.95;;;;;;;;;;5073726;28;20057;-78
2022/12/17 17:16:04;;;;;;;40.35;16.83;;;;;;;;;;5066187;28;20048;-76
2022/12/17 17:18:31;;;;;;;40.17;16.80;;;;;;;;;;5067794;28;20087;-75
2022/12/17 17:21:14;;;;;;;39.53;16.67;;;;;;;;;;5067626;28;20063;-77
2022/12/17 17:23:40;;;;;;;49.45;17.88;;;;;;;;;;5063923;28;20040;-78
2022/12/17 17:26:08;;;;;;;49.30;18.20;;;;;;;;;;5050882;28;20067;-77
2022/12/17 17:28:34;;;;;;;48.40;16.65;;;;;;;;;;5066351;28;20082;-75
2022/12/17 17:31:02;;;;;;;43.63;16.55;;;;;;;;;;5042881;28;20072;-77
2022/12/17 17:33:29;;;;;;;48.63;17.63;;;;;;;;;;5063925;28;20052;-77
2022/12/17 17:36:01;;;;;;;42.67;16.17;;;;;;;;;;5065083;28;20109;-77
2022/12/17 17:38:31;;;;;;;30.58;12.60;;;;;;;;;;5067001;28;20058;-77
2022/12/17 17:40:57;;;;;;;45.50;16.00;;;;;;;;;;5065395;28;20051;-77
2022/12/17 17:43:23;;;;;;;56.30;20.65;;;;;;;;;;5065228;28;20557;-78
2022/12/17 17:45:51;;;;;;;51.65;17.52;;;;;;;;;;5067169;28;20045;-78
2022/12/17 17:48:18;;;;;;;53.22;17.25;;;;;;;;;;5066427;28;20062;-76
2022/12/17 17:50:55;;;;;;;71.13;25.15;;;;;;;;;;5066404;28;20044;-76
2022/12/17 17:53:22;;;;;;;57.85;23.30;;;;;;;;;;5068834;28;20465;-78
2022/12/17 17:55:48;;;;;;;41.95;16.50;;;;;;;;;;5057116;28;20053;-78
2022/12/17 17:58:14;;;;;;;45.83;17.23;;;;;;;;;;5069695;28;20048;-79
2022/12/17 18:00:41;;;;;;;49.38;17.20;;;;;;;;;;5065590;28;20075;-78
2022/12/17 18:03:07;;;;;;;60.83;21.27;;;;;;;;;;5063108;28;20544;-78
2022/12/17 18:05:37;;;;;;;61.42;20.60;;;;;;;;;;5064777;28;20131;-76
2022/12/17 18:08:07;;;;;;;60.30;21.52;;;;;;;;;;5062380;28;20468;-77
2022/12/17 18:10:34;;;;;;;72.82;25.77;;;;;;;;;;5064280;28;20128;-74
2022/12/17 18:15:45;;;;;;;80.90;26.55;;;;;;;;;;5063054;28;20055;-77
2022/12/17 18:18:12;;;;;;;88.82;26.50;;;;;;;;;;5047974;28;20056;-77
2022/12/17 18:20:40;;;;;;;93.03;27.77;;;;;;;;;;5063186;28;20145;-73
2022/12/17 18:23:06;;;;;;;86.90;27.88;;;;;;;;;;5065493;28;20056;-75
2022/12/17 18:25:33;;;;;;;96.10;29.27;;;;;;;;;;5064068;28;20055;-77
2022/12/17 18:28:03;;;;;;;76.88;24.20;;;;;;;;;;5063099;28;20080;-77
2022/12/17 18:30:29;;;;;;;80.55;24.23;;;;;;;;;;5064358;28;20478;-76
2022/12/17 18:32:56;;;;;;;83.55;26.80;;;;;;;;;;5065124;28;20052;-76
2022/12/17 18:35:23;;;;;;;55.75;19.60;;;;;;;;;;5065190;28;20048;-74
2022/12/17 18:37:49;;;;;;;50.88;17.42;;;;;;;;;;5063041;28;20083;-78
2022/12/17 18:40:15;;;;;;;69.28;19.27;;;;;;;;;;5065255;28;20059;-77
2022/12/17 18:45:27;;;;;;;;;;;;;;;;;;5042588;28;20075;-77
2022/12/17 18:47:53;;;;;;;77.28;23.83;;;;;;;;;;5065463;28;20303;-78
2022/12/17 18:50:20;;;;;;;87.05;26.83;;;;;;;;;;5064774;28;20087;-77
2022/12/17 18:52:46;;;;;;;106.78;32.92;;;;;;;;;;5063372;28;20048;-74
2022/12/17 18:55:13;;;;;;;126.68;36.30;;;;;;;;;;5071097;28;20075;-77
2022/12/17 18:57:39;;;;;;;129.40;36.78;;;;;;;;;;5069013;28;20631;-77
2022/12/17 19:00:06;;;;;;;121.30;34.17;;;;;;;;;;5069640;28;20057;-77
2022/12/17 19:02:32;;;;;;;118.20;33.65;;;;;;;;;;5068735;28;20047;-77
2022/12/17 19:04:59;;;;;;;116.20;34.40;;;;;;;;;;5067070;28;20064;-77
2022/12/17 19:07:25;;;;;;;111.72;31.73;;;;;;;;;;5068169;28;20049;-77
2022/12/17 19:09:51;;;;;;;82.53;26.67;;;;;;;;;;5066793;28;20424;-76
2022/12/17 19:12:18;;;;;;;88.38;27.80;;;;;;;;;;5065415;28;20059;-76
2022/12/17 19:14:44;;;;;;;87.30;26.65;;;;;;;;;;5066368;28;20048;-77
2022/12/17 19:17:11;;;;;;;56.78;19.45;;;;;;;;;;5064416;28;20509;-76
2022/12/17 19:19:37;;;;;;;79.53;23.90;;;;;;;;;;5049036;28;20321;-77
2022/12/17 19:22:04;;;;;;;69.15;22.35;;;;;;;;;;5070803;28;20056;-77
2022/12/17 19:24:31;;;;;;;85.53;24.75;;;;;;;;;;5063364;28;20066;-76
2022/12/17 19:26:57;;;;;;;76.72;24.17;;;;;;;;;;5067037;28;20048;-77
2022/12/17 19:29:24;;;;;;;93.25;27.48;;;;;;;;;;5044596;28;20051;-76
2022/12/17 19:31:50;;;;;;;102.80;30.88;;;;;;;;;;5067010;28;20241;-77
2022/12/17 19:34:17;;;;;;;97.78;31.30;;;;;;;;;;5073974;28;20217;-77
2022/12/17 19:36:44;;;;;;;100.72;26.63;;;;;;;;;;5047967;28;20045;-77
2022/12/17 19:39:12;;;;;;;74.28;25.27;;;;;;;;;;5069467;28;20048;-76
2022/12/17 19:41:38;;;;;;;96.95;30.27;;;;;;;;;;5067359;28;20160;-74
2022/12/17 19:44:06;;;;;;;80.93;26.55;;;;;;;;;;5055025;28;20068;-77
2022/12/17 19:46:34;;;;;;;78.18;25.92;;;;;;;;;;5069252;28;20044;-77
2022/12/17 19:49:00;;;;;;;82.13;27.13;;;;;;;;;;5066607;28;20063;-77
2022/12/17 19:51:28;;;;;;;84.47;29.58;;;;;;;;;;5069611;28;20045;-77
2022/12/17 19:53:54;;;;;;;69.65;24.40;;;;;;;;;;5072701;28;20052;-77
2022/12/17 19:56:21;;;;;;;76.10;25.08;;;;;;;;;;5046450;28;20048;-75
2022/12/17 19:58:51;;;;;;;75.05;24.58;;;;;;;;;;5074412;28;20048;-78
2022/12/17 20:01:21;;;;;;;68.45;24.00;;;;;;;;;;5073056;28;20063;-77
2022/12/17 20:03:48;;;;;;;75.40;24.77;;;;;;;;;;5080929;28;20044;-77
2022/12/17 20:06:16;;;;;;;93.45;27.63;;;;;;;;;;5067174;28;21256;-76
2022/12/17 20:08:42;;;;;;;77.30;24.77;;;;;;;;;;5071140;28;20045;-76
2022/12/17 20:14:05;;;;;;;65.47;22.40;;;;;;;;;;5067405;28;20599;-76
2022/12/17 20:16:33;;;;;;;83.68;22.80;;;;;;;;;;5069612;28;20207;-76
2022/12/17 20:19:00;;;;;;;64.75;19.70;;;;;;;;;;5051755;28;20131;-75
2022/12/17 20:21:27;;;;;;;70.03;22.25;;;;;;;;;;5072478;28;20059;-77
2022/12/17 20:23:53;;;;;;;90.22;26.27;;;;;;;;;;5071024;28;20056;-76
2022/12/17 20:26:20;;;;;;;80.28;24.08;;;;;;;;;;5070050;28;20496;-76
2022/12/17 20:28:46;;;;;;;74.65;23.77;;;;;;;;;;5069853;28;20052;-75
2022/12/17 20:31:13;;;;;;;92.65;27.27;;;;;;;;;;5069627;28;20043;-76
2022/12/17 20:33:39;;;;;;;74.95;25.20;;;;;;;;;;5085561;28;20501;-76
2022/12/17 20:36:10;;;;;;;85.35;26.15;;;;;;;;;;5073956;28;20058;-76
2022/12/17 20:38:36;;;;;;;103.35;28.58;;;;;;;;;;5089631;28;20052;-77
2022/12/17 20:41:07;;;;;;;102.30;28.92;;;;;;;;;;5072021;28;20532;-75
2022/12/17 20:43:34;;;;;;;115.40;32.42;;;;;;;;;;5082098;28;20047;-75
2022/12/17 20:46:00;;;;;;;101.22;29.67;;;;;;;;;;5070622;28;20040;-77
2022/12/17 20:48:27;;;;;;;95.88;27.00;;;;;;;;;;5066884;28;20044;-76
2022/12/17 20:50:53;;;;;;;82.50;26.20;;;;;;;;;;5060597;28;20048;-76
2022/12/17 20:53:19;;;;;;;87.53;25.13;;;;;;;;;;5041272;28;20079;-75
2022/12/17 20:55:46;;;;;;;94.97;25.45;;;;;;;;;;5066955;28;20091;-76
2022/12/17 20:58:14;;;;;;;96.47;25.45;;;;;;;;;;5067726;28;20057;-76
2022/12/17 21:00:40;;;;;;;86.55;26.98;;;;;;;;;;5071226;28;20063;-76
2022/12/17 21:03:07;;;;;;;84.47;26.65;;;;;;;;;;5074884;28;20053;-76
2022/12/17 21:05:34;;;;;;;82.40;24.10;;;;;;;;;;5046351;28;20109;-77
2022/12/17 21:08:00;;;;;;;75.40;23.60;;;;;;;;;;5067781;28;20049;-76
2022/12/17 21:10:26;;;;;;;72.65;22.40;;;;;;;;;;5046288;28;20367;-76
2022/12/17 21:15:59;;;;;;;80.30;23.17;;;;;;;;;;5029137;28;20505;-77
2022/12/17 21:18:26;;;;;;;77.97;24.63;;;;;;;;;;5070019;28;20052;-76
2022/12/17 21:20:57;;;;;;;90.15;25.75;;;;;;;;;;5064252;28;20287;-76
2022/12/17 21:23:23;;;;;;;73.20;23.58;;;;;;;;;;5074847;28;20044;-76
2022/12/17 21:25:57;;;;;;;73.55;24.65;;;;;;;;;;5082530;28;20052;-77
2022/12/17 21:28:24;;;;;;;69.68;23.73;;;;;;;;;;5068779;28;20063;-75
2022/12/17 21:30:51;;;;;;;69.70;23.08;;;;;;;;;;5066477;28;20204;-76
2022/12/17 21:33:17;;;;;;;77.30;24.27;;;;;;;;;;5063515;28;20479;-77
2022/12/17 21:35:44;;;;;;;80.90;25.08;;;;;;;;;;5071432;28;20056;-77
2022/12/17 21:38:10;;;;;;;72.80;24.83;;;;;;;;;;5052683;28;20303;-77
2022/12/17 21:40:36;;;;;;;76.63;24.17;;;;;;;;;;5064466;28;20056;-77
2022/12/17 21:43:03;;;;;;;75.53;23.73;;;;;;;;;;5076825;28;20056;-77
2022/12/17 21:45:34;;;;;;;69.80;22.33;;;;;;;;;;5067493;28;20052;-76
2022/12/17 21:48:01;;;;;;;79.80;26.45;;;;;;;;;;5071873;28;20432;-77
2022/12/17 21:50:28;;;;;;;85.88;28.08;;;;;;;;;;5047655;28;20143;-76
2022/12/17 21:52:55;;;;;;;75.32;24.25;;;;;;;;;;5070367;28;20136;-76
2022/12/17 21:55:21;;;;;;;76.00;24.77;;;;;;;;;;5072243;28;20424;-76
2022/12/17 21:57:47;;;;;;;76.15;23.80;;;;;;;;;;5080469;28;20059;-76
2022/12/17 22:00:14;;;;;;;72.97;23.05;;;;;;;;;;5073380;28;20052;-77
2022/12/17 22:02:41;;;;;;;66.88;23.23;;;;;;;;;;5073498;28;20064;-75
2022/12/17 22:05:08;;;;;;;71.88;24.40;;;;;;;;;;5064437;28;20135;-77
2022/12/17 22:07:40;;;;;;;76.38;23.20;;;;;;;;;;5067095;28;20413;-77
2022/12/17 22:10:09;;;;;;;83.95;26.27;;;;;;;;;;5067937;28;20049;-76
2022/12/17 22:15:40;;;;;;;75.97;23.42;;;;;;;;;;5069109;28;20170;-78
2022/12/17 22:18:13;;;;;;;76.22;22.77;;;;;;;;;;5075953;28;20052;-76
2022/12/17 22:20:40;;;;;;;78.85;25.85;;;;;;;;;;5085874;28;20082;-76
2022/12/17 22:23:06;;;;;;;77.72;23.83;;;;;;;;;;5064914;28;20259;-76
2022/12/17 22:25:35;;;;;;;83.15;25.63;;;;;;;;;;5064953;28;20063;-76
2022/12/17 22:28:01;;;;;;;73.40;22.88;;;;;;;;;;5064263;28;20386;-77
2022/12/17 22:33:15;;;;;;;85.80;26.20;;;;;;;;;;5069341;28;20436;-76
2022/12/17 22:36:01;;;;;;;91.63;28.27;;;;;;;;;;5085641;28;20059;-76
2022/12/17 22:38:47;;;;;;;91.22;27.58;;;;;;;;;;5075355;28;20056;-76
2022/12/17 22:44:39;;;;;;;83.65;26.77;;;;;;;;;;5061609;28;20060;-76
2022/12/17 22:47:19;;;;;;;72.85;24.95;;;;;;;;;;5061226;28;20052;-76
2022/12/17 22:49:45;;;;;;;80.05;25.35;;;;;;;;;;5071057;28;20124;-76
2022/12/17 22:52:12;;;;;;;80.68;26.17;;;;;;;;;;5064153;28;20044;-77
2022/12/17 22:54:39;;;;;;;74.95;24.48;;;;;;;;;;5066390;28;20072;-77
2022/12/17 22:57:09;;;;;;;87.22;26.40;;;;;;;;;;5063190;28;20272;-77
2022/12/17 22:59:55;;;;;;;83.47;25.40;;;;;;;;;;5064238;28;20052;-76
2022/12/17 23:02:22;;;;;;;75.45;23.23;;;;;;;;;;5066332;28;20048;-76
2022/12/17 23:04:49;;;;;;;88.18;26.65;;;;;;;;;;5068938;28;20519;-76
2022/12/17 23:07:15;;;;;;;81.88;26.48;;;;;;;;;;5073931;28;20071;-76
2022/12/17 23:09:41;;;;;;;75.72;24.45;;;;;;;;;;5057768;28;20049;-78
2022/12/17 23:14:54;;;;;;;75.07;23.63;;;;;;;;;;5065757;28;20056;-77
2022/12/17 23:17:20;;;;;;;64.25;19.60;;;;;;;;;;5065183;28;20055;-76
2022/12/17 23:19:47;;;;;;;67.53;22.05;;;;;;;;;;5072264;28;20119;-76
2022/12/17 23:22:16;;;;;;;68.93;21.98;;;;;;;;;;5075241;28;20064;-74
2022/12/17 23:24:47;;;;;;;72.85;22.35;;;;;;;;;;5067357;28;20579;-75
2022/12/17 23:27:14;;;;;;;79.18;21.92;;;;;;;;;;5075329;28;20048;-76
2022/12/17 23:29:40;;;;;;;67.13;22.13;;;;;;;;;;5064338;28;20048;-76
2022/12/17 23:32:06;;;;;;;69.47;21.77;;;;;;;;;;5064171;28;20509;-76
2022/12/17 23:34:34;;;;;;;64.93;21.15;;;;;;;;;;5063271;28;20056;-72
2022/12/17 23:37:00;;;;;;;61.17;21.20;;;;;;;;;;5064129;28;20059;-77
2022/12/17 23:39:27;;;;;;;71.72;21.08;;;;;;;;;;5075828;28;20082;-76
2022/12/17 23:41:53;;;;;;;68.97;21.40;;;;;;;;;;5067319;28;20052;-76
2022/12/17 23:44:20;;;;;;;68.93;21.52;;;;;;;;;;5055373;28;20524;-76
2022/12/17 23:46:46;;;;;;;75.65;21.95;;;;;;;;;;5070989;28;20444;-76
2022/12/17 23:49:15;;;;;;;71.13;21.85;;;;;;;;;;5072563;28;20048;-76
2022/12/17 23:51:42;;;;;;;68.35;21.33;;;;;;;;;;5072559;28;20055;-76
2022/12/17 23:54:08;;;;;;;57.47;19.65;;;;;;;;;;5074003;28;20059;-76
2022/12/17 23:56:35;;;;;;;60.70;21.30;;;;;;;;;;5076562;28;20060;-76
2022/12/17 23:59:02;;;;;;;62.13;19.00;;;;;;;;;;5054714;28;20060;-77
